Oceans Seven — ZCXP2 — position and weather

sailwx.info

Track history (hours):
 
Tides and Currents Weather Stations Pressure Air Temp Water Temp Dewpoint Dewpoint Depression Visibility Wind Speed Wind Dir Waves Ship Positions

Oceans Seven

Last reported at 2018-Aug-19 14:56 UTC. Time now 2018-Aug-19 15:20 UTC.
Position N 37°53' E 015°40'.

Length 44 m; draft 3 m.

Type: Pleasure craft. MMSI: 319044000.

Date/timePositionNaut miles runAvg speedWind from/ knotsBaromVisibWave heightAir tempDewpointWater temp
2018-Aug-19 14:56N 37°53' E 015°40'510.2
2018-Aug-19 14:30N 37°57' E 015°37'5 9.9
2018-Aug-19 13:59N 38°02' E 015°35'610.1
2018-Aug-19 13:26N 38°08' E 015°35'4 9.8
2018-Aug-19 12:58N 38°12' E 015°36'8 8.3
2018-Aug-19 11:58N 38°20' E 015°39'  
2018-Aug-10 11:38N 38°14' E 013°40'110.7
2018-Aug-10 11:30N 38°14' E 013°38'510.8
2018-Aug-10 11:00N 38°12' E 013°32'510.7
2018-Aug-10 10:31N 38°09' E 013°26'3 5.3
2018-Aug-10 09:59N 38°09' E 013°22'0 0.0
2018-Aug-10 09:29N 38°09' E 013°22'0 0.0
2018-Aug-10 08:59N 38°09' E 013°22'0 0.0
2018-Aug-10 08:29N 38°09' E 013°22'0 0.0
2018-Aug-10 07:59N 38°09' E 013°22'0 0.0
2018-Aug-10 07:29N 38°09' E 013°22'0 0.0
2018-Aug-10 06:59N 38°09' E 013°22'0 0.0
2018-Aug-10 06:29N 38°09' E 013°22'0 0.0
2018-Aug-10 05:59N 38°09' E 013°22'0 0.0
2018-Aug-10 05:29N 38°09' E 013°22'0 0.0
2018-Aug-10 04:59N 38°09' E 013°22'0 0.0
2018-Aug-10 04:29N 38°09' E 013°22'0 0.0
2018-Aug-10 03:56N 38°09' E 013°22'0 0.0
2018-Aug-10 03:29N 38°09' E 013°22'0 0.0
2018-Aug-10 02:59N 38°09' E 013°22'0 0.0
2018-Aug-10 02:26N 38°09' E 013°22'0 0.0
2018-Aug-10 01:56N 38°09' E 013°22'0 0.0
2018-Aug-10 01:29N 38°09' E 013°22'0 0.0
2018-Aug-10 00:59N 38°09' E 013°22'0 0.0
2018-Aug-10 00:29N 38°09' E 013°22'0 0.0
2018-Aug-09 23:59N 38°09' E 013°22'0 0.0
2018-Aug-09 23:26N 38°09' E 013°22'0 0.0
2018-Aug-09 22:59N 38°09' E 013°22'0 0.0
2018-Aug-09 22:29N 38°09' E 013°22'0 0.0
2018-Aug-09 21:59N 38°09' E 013°22'0 0.0
2018-Aug-09 21:29N 38°09' E 013°22'0 0.0
2018-Aug-09 20:59N 38°09' E 013°22'0 0.0
2018-Aug-09 20:29N 38°09' E 013°22'0 0.0
2018-Aug-09 19:59N 38°09' E 013°22'0 0.0
2018-Aug-09 19:29N 38°09' E 013°22'0 0.0
2018-Aug-09 18:59N 38°09' E 013°22'0 0.0
2018-Aug-09 18:29N 38°09' E 013°22'0 0.0
2018-Aug-09 17:59N 38°09' E 013°22'0 0.0
2018-Aug-09 17:26N 38°09' E 013°22'0 0.0
2018-Aug-09 16:59N 38°09' E 013°22'0 0.0
2018-Aug-09 16:29N 38°09' E 013°22'0 0.0
2018-Aug-09 15:59N 38°09' E 013°22'0 0.0
2018-Aug-09 15:29N 38°09' E 013°22'0 0.0
2018-Aug-09 14:59N 38°09' E 013°22'  
Track history (hours):
 
Tides and Currents Weather Stations Pressure Air Temp Water Temp Dewpoint Dewpoint Depression Visibility Wind Speed Wind Dir Waves Ship Positions

Oceans Seven

Last reported at 2018-Aug-19 14:56 UTC. Time now 2018-Aug-19 15:20 UTC.
Position N 37°53' E 015°40'.

Length 44 m; draft 3 m.

Type: Pleasure craft. MMSI: 319044000.

Date/timePositionNaut miles runAvg speedWind from/ knotsBaromVisibWave heightAir tempDewpointWater temp
2018-Aug-19 14:56N 37°53' E 015°40'510.2
2018-Aug-19 14:30N 37°57' E 015°37'5 9.9
2018-Aug-19 13:59N 38°02' E 015°35'610.1
2018-Aug-19 13:26N 38°08' E 015°35'4 9.8
2018-Aug-19 12:58N 38°12' E 015°36'8 8.3
2018-Aug-19 11:58N 38°20' E 015°39'  
2018-Aug-10 11:38N 38°14' E 013°40'110.7
2018-Aug-10 11:30N 38°14' E 013°38'510.8
2018-Aug-10 11:00N 38°12' E 013°32'510.7
2018-Aug-10 10:31N 38°09' E 013°26'3 5.3
2018-Aug-10 09:59N 38°09' E 013°22'0 0.0
2018-Aug-10 09:29N 38°09' E 013°22'0 0.0
2018-Aug-10 08:59N 38°09' E 013°22'0 0.0
2018-Aug-10 08:29N 38°09' E 013°22'0 0.0
2018-Aug-10 07:59N 38°09' E 013°22'0 0.0
2018-Aug-10 07:29N 38°09' E 013°22'0 0.0
2018-Aug-10 06:59N 38°09' E 013°22'0 0.0
2018-Aug-10 06:29N 38°09' E 013°22'0 0.0
2018-Aug-10 05:59N 38°09' E 013°22'0 0.0
2018-Aug-10 05:29N 38°09' E 013°22'0 0.0
2018-Aug-10 04:59N 38°09' E 013°22'0 0.0
2018-Aug-10 04:29N 38°09' E 013°22'0 0.0
2018-Aug-10 03:56N 38°09' E 013°22'0 0.0
2018-Aug-10 03:29N 38°09' E 013°22'0 0.0
2018-Aug-10 02:59N 38°09' E 013°22'0 0.0
2018-Aug-10 02:26N 38°09' E 013°22'0 0.0
2018-Aug-10 01:56N 38°09' E 013°22'0 0.0
2018-Aug-10 01:29N 38°09' E 013°22'0 0.0
2018-Aug-10 00:59N 38°09' E 013°22'0 0.0
2018-Aug-10 00:29N 38°09' E 013°22'0 0.0
2018-Aug-09 23:59N 38°09' E 013°22'0 0.0
2018-Aug-09 23:26N 38°09' E 013°22'0 0.0
2018-Aug-09 22:59N 38°09' E 013°22'0 0.0
2018-Aug-09 22:29N 38°09' E 013°22'0 0.0
2018-Aug-09 21:59N 38°09' E 013°22'0 0.0
2018-Aug-09 21:29N 38°09' E 013°22'0 0.0
2018-Aug-09 20:59N 38°09' E 013°22'0 0.0
2018-Aug-09 20:29N 38°09' E 013°22'0 0.0
2018-Aug-09 19:59N 38°09' E 013°22'0 0.0
2018-Aug-09 19:29N 38°09' E 013°22'0 0.0
2018-Aug-09 18:59N 38°09' E 013°22'0 0.0
2018-Aug-09 18:29N 38°09' E 013°22'0 0.0
2018-Aug-09 17:59N 38°09' E 013°22'0 0.0
2018-Aug-09 17:26N 38°09' E 013°22'0 0.0
2018-Aug-09 16:59N 38°09' E 013°22'0 0.0
2018-Aug-09 16:29N 38°09' E 013°22'0 0.0
2018-Aug-09 15:59N 38°09' E 013°22'0 0.0
2018-Aug-09 15:29N 38°09' E 013°22'0 0.0
2018-Aug-09 14:59N 38°09' E 013°22'  

Dump ship's entire track history